Time;durP1;ratioP1;P1;durP2;ratioP2;P2;SDS_P1;SDS_P2;PMS_P1;PMS_P2;Temp;Humidity;BMP_temperature;BMP_pressure;BME280_temperature;BME280_humidity;BME280_pressure;Samples;Min_cycle;Max_cycle;Signal;HPM_P1;HPM_P2
2022/03/15 00:01:24;;;;;;;9.27;8.23;;;;;;;9.16;60.10;101440.38;10347691;28;20053;-61
2022/03/15 00:06:26;;;;;;;8.35;7.55;;;;;;;9.06;60.61;101423.25;10353617;28;20053;-61
2022/03/15 00:11:27;;;;;;;8.55;7.75;;;;;;;9.02;60.22;101414.59;10354583;28;20160;-61
2022/03/15 00:16:29;;;;;;;9.50;7.65;;;;;;;9.04;60.45;101409.19;10351421;28;20127;-62
2022/03/15 00:21:31;;;;;;;8.00;7.20;;;;;;;9.07;60.11;101411.69;10352998;28;20888;-59
2022/03/15 00:26:34;;;;;;;8.00;6.75;;;;;;;8.94;60.54;101418.63;10347414;28;20064;-61
2022/03/15 00:31:35;;;;;;;11.13;7.95;;;;;;;9.01;60.70;101404.06;10347118;28;20139;-60
2022/03/15 00:36:37;;;;;;;8.32;7.55;;;;;;;8.83;60.66;101396.16;10351946;28;20049;-61
2022/03/15 00:41:39;;;;;;;7.43;6.68;;;;;;;8.87;61.02;101409.28;10351422;28;20535;-59
2022/03/15 00:46:40;;;;;;;7.85;6.97;;;;;;;8.91;60.54;101403.69;10353210;28;20413;-59
2022/03/15 00:51:43;;;;;;;7.82;7.05;;;;;;;8.74;61.17;101394.03;10352391;28;20182;-61
2022/03/15 00:56:44;;;;;;;8.23;7.35;;;;;;;8.88;61.11;101409.19;10357969;28;20050;-61
2022/03/15 01:01:46;;;;;;;8.13;7.32;;;;;;;8.87;60.50;101396.00;10356596;28;20330;-61
2022/03/15 01:06:48;;;;;;;8.43;7.60;;;;;;;8.80;61.06;101412.25;10356433;28;20045;-62
2022/03/15 01:11:50;;;;;;;7.95;7.13;;;;;;;8.70;61.42;101408.38;10356050;28;20484;-61
2022/03/15 01:16:53;;;;;;;8.65;6.70;;;;;;;8.63;61.58;101401.69;10360697;28;20055;-61
2022/03/15 01:21:56;;;;;;;8.77;6.10;;;;;;;8.62;61.98;101386.72;10356007;28;20066;-61
2022/03/15 01:26:58;;;;;;;8.60;6.25;;;;;;;8.59;61.73;101379.78;10363842;28;20049;-61
2022/03/15 01:32:00;;;;;;;8.57;6.78;;;;;;;8.61;61.65;101379.69;10356950;28;20054;-61
2022/03/15 01:37:02;;;;;;;8.38;7.18;;;;;;;8.55;61.88;101372.06;10353165;28;20417;-61
2022/03/15 01:42:04;;;;;;;10.65;6.70;;;;;;;8.53;61.98;101368.63;10355834;28;20061;-60
2022/03/15 01:47:05;;;;;;;9.38;7.43;;;;;;;8.39;62.01;101364.03;10359599;28;20050;-61
2022/03/15 01:52:10;;;;;;;7.00;6.30;;;;;;;8.38;61.86;101346.41;10355504;28;20056;-61
2022/03/15 01:57:12;;;;;;;6.53;5.85;;;;;;;8.45;62.20;101369.03;10357016;28;20642;-61
2022/03/15 02:02:13;;;;;;;7.38;5.78;;;;;;;8.43;62.42;101371.75;10355216;28;20154;-61
2022/03/15 02:07:15;;;;;;;7.13;6.43;;;;;;;8.30;62.70;101357.41;10355594;28;20046;-61
2022/03/15 02:12:17;;;;;;;6.53;4.97;;;;;;;8.36;62.64;101364.19;10356641;28;20152;-61
2022/03/15 02:17:18;;;;;;;8.48;5.20;;;;;;;8.51;62.59;101359.91;10355216;28;20057;-59
2022/03/15 02:22:20;;;;;;;4.97;4.57;;;;;;;8.55;62.21;101358.81;10355256;28;20152;-59
2022/03/15 02:27:23;;;;;;;5.70;4.25;;;;;;;8.32;62.39;101321.91;10351789;28;20128;-59
2022/03/15 02:32:25;;;;;;;5.93;4.20;;;;;;;8.53;62.24;101358.00;10353126;28;20064;-59
2022/03/15 02:37:26;;;;;;;4.40;3.97;;;;;;;8.45;62.28;101334.53;10349304;28;20045;-59
2022/03/15 02:42:28;;;;;;;5.40;4.28;;;;;;;8.52;62.35;101351.00;10352386;28;20049;-59
2022/03/15 02:47:29;;;;;;;5.15;4.45;;;;;;;8.53;61.97;101344.75;10352710;28;20057;-59
2022/03/15 02:52:32;;;;;;;7.35;5.00;;;;;;;8.46;61.99;101323.84;10353774;28;20061;-59
2022/03/15 02:57:34;;;;;;;6.25;4.20;;;;;;;8.55;61.71;101345.53;10353680;28;20053;-61
2022/03/15 03:02:35;;;;;;;5.15;4.25;;;;;;;8.58;61.25;101332.94;10350702;28;20057;-62
2022/03/15 03:07:38;;;;;;;6.00;4.68;;;;;;;8.60;61.56;101340.81;10347357;28;20596;-60
2022/03/15 03:12:41;;;;;;;5.78;4.63;;;;;;;8.55;62.02;101330.44;10349683;28;20053;-63
2022/03/15 03:17:42;;;;;;;7.03;5.13;;;;;;;8.56;61.63;101339.28;10355179;28;20053;-60
2022/03/15 03:22:45;;;;;;;5.20;4.50;;;;;;;8.55;61.93;101321.66;10353657;28;20057;-61
2022/03/15 03:27:49;;;;;;;4.82;4.43;;;;;;;8.57;61.89;101322.41;10353595;28;20057;-60
2022/03/15 03:32:51;;;;;;;6.88;4.85;;;;;;;8.49;61.95;101321.03;10354589;28;20153;-59
2022/03/15 03:37:52;;;;;;;5.65;5.05;;;;;;;8.45;62.24;101316.84;10353332;28;20042;-61
2022/03/15 03:42:54;;;;;;;8.00;6.43;;;;;;;8.41;62.43;101320.56;10351308;28;20053;-60
2022/03/15 03:47:55;;;;;;;9.98;8.00;;;;;;;8.31;62.63;101306.09;10351704;28;20512;-60
2022/03/15 03:52:57;;;;;;;8.82;7.13;;;;;;;8.36;62.25;101306.72;10351519;28;20046;-62
2022/03/15 03:57:59;;;;;;;10.77;7.72;;;;;;;8.30;62.75;101315.84;10349526;28;20064;-61
2022/03/15 04:03:01;;;;;;;6.32;5.50;;;;;;;8.24;62.87;101312.66;10351760;28;20136;-62
2022/03/15 04:08:03;;;;;;;6.97;5.35;;;;;;;8.23;62.47;101300.34;10353958;28;20297;-61
2022/03/15 04:13:08;;;;;;;6.35;5.75;;;;;;;8.24;62.43;101317.97;10350417;28;20533;-60
2022/03/15 04:18:10;;;;;;;8.73;4.60;;;;;;;8.21;62.59;101296.91;10351038;28;20512;-59
2022/03/15 04:23:11;;;;;;;5.70;5.13;;;;;;;8.25;62.43;101309.06;10347773;28;20046;-61
2022/03/15 04:28:13;;;;;;;7.07;5.20;;;;;;;8.27;62.60;101309.84;10352611;28;20045;-60
2022/03/15 04:33:15;;;;;;;5.18;4.68;;;;;;;8.28;62.15;101308.91;10354036;28;20459;-61
2022/03/15 04:38:17;;;;;;;6.68;5.53;;;;;;;8.27;62.18;101317.78;10360578;28;20042;-61
2022/03/15 04:43:18;;;;;;;6.13;5.32;;;;;;;8.31;62.48;101314.03;10359157;28;20574;-60
2022/03/15 04:48:21;;;;;;;7.93;6.32;;;;;;;8.20;62.64;101300.53;10358602;28;20172;-60
2022/03/15 04:53:22;;;;;;;8.52;6.10;;;;;;;8.19;62.64;101282.88;10357232;28;20063;-60
2022/03/15 04:58:24;;;;;;;7.10;6.10;;;;;;;8.16;62.60;101293.66;10358196;28;20056;-60
2022/03/15 05:03:25;;;;;;;9.48;6.03;;;;;;;8.07;62.77;101290.53;10355630;28;20056;-61
2022/03/15 05:08:27;;;;;;;6.80;6.10;;;;;;;7.94;63.33;101278.88;10362387;28;20056;-60
2022/03/15 05:13:28;;;;;;;6.30;5.40;;;;;;;7.92;63.34;101270.16;10358866;28;20133;-61
2022/03/15 05:18:30;;;;;;;4.80;4.30;;;;;;;7.99;63.45;101287.47;10354733;28;20055;-61
2022/03/15 05:23:31;;;;;;;4.88;4.18;;;;;;;8.06;63.68;101283.56;10356375;28;20052;-61
2022/03/15 05:28:33;;;;;;;4.53;4.13;;;;;;;8.11;63.02;101283.31;10357121;28;20041;-60
2022/03/15 05:33:34;;;;;;;7.13;4.78;;;;;;;8.03;63.64;101272.22;10354458;28;20160;-61
2022/03/15 05:38:36;;;;;;;6.00;4.65;;;;;;;8.08;63.68;101270.22;10354626;28;20583;-61
2022/03/15 05:43:37;;;;;;;4.40;4.00;;;;;;;8.03;63.04;101262.50;10352945;28;20064;-61
2022/03/15 05:48:39;;;;;;;4.13;3.50;;;;;;;8.17;62.64;101268.81;10358313;28;20137;-60
2022/03/15 05:53:41;;;;;;;3.95;3.45;;;;;;;8.26;62.81;101276.31;10350462;28;20456;-62
2022/03/15 05:58:43;;;;;;;4.90;3.35;;;;;;;8.28;62.68;101282.38;10328468;28;20130;-61
2022/03/15 06:03:45;;;;;;;5.22;4.15;;;;;;;8.22;62.39;101266.81;10334818;28;20058;-61
2022/03/15 06:08:48;;;;;;;7.35;4.57;;;;;;;8.11;62.27;101254.97;10338257;28;20132;-62
2022/03/15 06:13:49;;;;;;;5.38;4.28;;;;;;;8.25;62.62;101271.94;10336036;28;20132;-61
2022/03/15 06:18:51;;;;;;;6.30;4.80;;;;;;;8.22;62.61;101269.44;10341515;28;20805;-61
2022/03/15 06:23:52;;;;;;;7.40;5.57;;;;;;;8.09;62.36;101246.25;10334484;28;20193;-61
2022/03/15 06:29:07;;;;;;;6.57;5.38;;;;;;;8.02;62.76;101249.31;10341602;28;20053;-62
2022/03/15 06:34:09;;;;;;;6.35;5.55;;;;;;;7.94;62.67;101232.03;10341840;28;20107;-61
2022/03/15 06:39:10;;;;;;;6.38;5.75;;;;;;;8.14;62.25;101244.19;10333239;28;20049;-59
2022/03/15 06:44:11;;;;;;;7.20;6.32;;;;;;;8.18;62.26;101238.72;10334354;28;20048;-59
2022/03/15 06:49:13;;;;;;;6.35;5.30;;;;;;;8.22;62.18;101227.00;10338999;28;20050;-62
2022/03/15 06:54:14;;;;;;;5.88;4.90;;;;;;;8.37;62.36;101228.81;10339720;28;20053;-62
2022/03/15 06:59:16;;;;;;;7.72;4.93;;;;;;;8.37;62.33;101231.47;10339095;28;20545;-61
2022/03/15 07:04:17;;;;;;;6.18;4.85;;;;;;;8.47;62.10;101230.03;10337544;28;20098;-61
2022/03/15 07:09:19;;;;;;;6.43;4.93;;;;;;;8.71;61.86;101216.31;10339536;28;20597;-61
2022/03/15 07:14:20;;;;;;;6.15;5.30;;;;;;;8.45;61.25;101181.53;10341427;28;20060;-60
2022/03/15 07:19:22;;;;;;;8.38;5.50;;;;;;;8.66;61.05;101223.69;10341729;28;20096;-60
2022/03/15 07:24:24;;;;;;;6.75;5.50;;;;;;;8.67;61.50;101222.75;10340631;28;20049;-61
2022/03/15 07:29:26;;;;;;;5.53;4.70;;;;;;;8.69;61.10;101222.66;10342303;28;20129;-58
2022/03/15 07:34:28;;;;;;;6.05;5.10;;;;;;;8.90;60.77;101225.88;10337250;28;20104;-60
2022/03/15 07:39:29;;;;;;;6.28;5.53;;;;;;;8.93;60.98;101225.69;10337080;28;20227;-58
2022/03/15 07:44:32;;;;;;;6.28;5.20;;;;;;;8.99;61.00;101230.66;10338104;28;20061;-60
2022/03/15 07:49:34;;;;;;;8.02;4.85;;;;;;;9.00;60.88;101227.06;10338326;28;20061;-59
2022/03/15 07:54:35;;;;;;;6.63;4.68;;;;;;;9.18;60.42;101207.38;10336473;28;21763;-60
2022/03/15 07:59:36;;;;;;;9.45;4.82;;;;;;;9.21;59.85;101177.13;10334308;28;20054;-60
2022/03/15 08:04:38;;;;;;;5.90;4.68;;;;;;;9.41;60.07;101188.34;10335268;28;20136;-59
2022/03/15 08:09:40;;;;;;;9.27;4.75;;;;;;;9.33;59.93;101180.84;10331157;28;21004;-58
2022/03/15 08:14:41;;;;;;;4.88;4.03;;;;;;;9.30;60.24;101176.56;10336796;28;20529;-59
2022/03/15 08:19:43;;;;;;;6.00;3.80;;;;;;;9.25;60.09;101164.50;10336933;28;20057;-59
2022/03/15 08:24:44;;;;;;;4.60;4.00;;;;;;;9.30;60.01;101171.25;10334821;28;20224;-59
2022/03/15 08:29:46;;;;;;;6.05;4.07;;;;;;;9.31;60.25;101157.03;10331289;28;20060;-58
2022/03/15 08:34:47;;;;;;;4.80;4.28;;;;;;;9.42;60.13;101155.53;10341174;28;20527;-60
2022/03/15 08:39:48;;;;;;;6.10;4.97;;;;;;;9.24;60.03;101117.66;10334916;28;20495;-60
2022/03/15 08:44:50;;;;;;;4.65;4.18;;;;;;;9.57;59.36;101148.41;10336130;28;20064;-67
2022/03/15 08:49:51;;;;;;;5.05;4.55;;;;;;;9.59;59.52;101139.38;10337840;28;20572;-59
2022/03/15 08:54:53;;;;;;;5.72;4.47;;;;;;;9.71;59.34;101153.69;10335144;28;20333;-58
2022/03/15 08:59:54;;;;;;;6.53;4.85;;;;;;;9.81;59.21;101138.03;10334757;28;20055;-60
2022/03/15 09:04:56;;;;;;;6.55;4.88;;;;;;;9.76;59.43;101114.41;10336502;28;20118;-61
2022/03/15 09:09:58;;;;;;;5.45;4.70;;;;;;;9.90;58.99;101114.34;10338152;28;20060;-61
2022/03/15 09:14:59;;;;;;;6.72;4.05;;;;;;;9.90;59.33;101138.28;10340036;28;20049;-58
2022/03/15 09:20:00;;;;;;;7.25;5.10;;;;;;;9.83;59.15;101122.81;10341620;28;20064;-59
2022/03/15 09:25:03;;;;;;;8.52;4.90;;;;;;;9.77;59.25;101107.28;10340814;28;20046;-57
2022/03/15 09:30:06;;;;;;;6.93;5.03;;;;;;;9.89;58.92;101099.38;10340644;28;20048;-58
2022/03/15 09:35:08;;;;;;;7.25;5.30;;;;;;;9.98;58.48;101092.59;10342468;28;20064;-59
2022/03/15 09:40:10;;;;;;;6.15;4.75;;;;;;;10.04;58.37;101086.91;10348163;28;20042;-58
2022/03/15 09:45:12;;;;;;;6.50;5.25;;;;;;;10.11;58.20;101076.69;10344447;28;20056;-59
2022/03/15 09:50:14;;;;;;;6.68;5.22;;;;;;;10.14;57.41;101071.16;10341327;28;20577;-57
2022/03/15 09:55:16;;;;;;;7.00;5.55;;;;;;;10.00;57.95;101073.91;10338924;28;20068;-60
2022/03/15 10:00:18;;;;;;;7.18;5.82;;;;;;;10.01;58.26;101064.94;10338654;28;20060;-59
2022/03/15 10:05:20;;;;;;;7.30;5.32;;;;;;;10.05;57.85;101053.16;10339977;28;20482;-60
2022/03/15 10:10:23;;;;;;;8.05;6.10;;;;;;;10.11;57.76;101054.56;10341901;28;20546;-59
2022/03/15 10:15:26;;;;;;;10.98;6.35;;;;;;;9.98;57.83;101011.94;10335009;28;20058;-59
2022/03/15 10:20:31;;;;;;;8.93;6.23;;;;;;;10.16;57.74;101042.66;10342003;28;20196;-59
2022/03/15 10:25:34;;;;;;;9.73;5.60;;;;;;;10.12;58.09;101049.16;10339315;28;20057;-58
2022/03/15 10:30:36;;;;;;;11.07;5.90;;;;;;;10.14;57.96;101049.88;10337849;28;20054;-60
2022/03/15 10:35:41;;;;;;;8.60;6.35;;;;;;;9.99;59.11;101018.97;10343467;28;20061;-60
2022/03/15 10:40:48;;;;;;;6.40;5.53;;;;;;;10.11;61.04;101027.97;10341876;28;20203;-60
2022/03/15 10:45:57;;;;;;;8.60;6.47;;;;;;;10.08;61.91;101013.88;10342312;28;20069;-60
2022/03/15 10:51:16;;;;;;;7.82;7.10;;;;;;;10.04;63.26;100998.25;10337698;28;20688;-62
2022/03/15 10:56:23;;;;;;;8.55;6.82;;;;;;;10.07;63.84;101006.00;10337795;28;20053;-63
2022/03/15 11:01:26;;;;;;;7.25;6.38;;;;;;;9.96;65.50;101006.72;10340484;28;20128;-59
2022/03/15 11:06:44;;;;;;;7.03;6.32;;;;;;;9.93;65.66;101003.44;10345571;28;20054;-59
2022/03/15 11:11:47;;;;;;;8.38;6.57;;;;;;;9.96;65.41;101008.56;10343897;28;20053;-61
2022/03/15 11:16:51;;;;;;;9.60;6.57;;;;;;;9.98;65.64;101001.31;10341644;28;20048;-62
2022/03/15 11:21:52;;;;;;;8.67;6.40;;;;;;;10.00;66.81;100994.94;10336271;28;20132;-60
2022/03/15 11:26:55;;;;;;;9.27;7.25;;;;;;;9.73;68.35;100989.63;10339200;28;20052;-65
2022/03/15 11:31:58;;;;;;;10.23;6.70;;;;;;;9.75;69.15;100973.59;10336935;28;20054;-61
2022/03/15 11:37:00;;;;;;;8.98;7.18;;;;;;;9.77;69.29;100959.22;10330533;28;20060;-62
2022/03/15 11:42:02;;;;;;;9.88;7.53;;;;;;;9.87;70.39;100935.53;10333696;28;20042;-59
2022/03/15 11:47:30;;;;;;;9.27;7.82;;;;;;;9.89;70.08;100939.81;10335041;28;20641;-59
2022/03/15 11:52:52;;;;;;;12.32;8.20;;;;;;;9.76;70.25;100922.97;10333601;28;20049;-60
2022/03/15 11:58:01;;;;;;;7.97;7.18;;;;;;;9.85;70.16;100922.34;10333175;28;20046;-61
2022/03/15 12:03:06;;;;;;;9.25;7.05;;;;;;;9.83;70.30;100900.34;10335415;28;20570;-61
2022/03/15 12:08:16;;;;;;;7.95;7.15;;;;;;;9.75;70.52;100885.84;10332883;28;20045;-61
2022/03/15 12:13:20;;;;;;;9.95;6.80;;;;;;;9.76;71.37;100861.81;10335453;28;20051;-60
2022/03/15 12:23:26;;;;;;;8.18;7.28;;;;;;;9.93;71.84;100844.72;10336363;28;20540;-62
2022/03/15 12:28:32;;;;;;;10.05;7.32;;;;;;;9.89;71.96;100820.16;10334231;28;20059;-60
2022/03/15 12:33:35;;;;;;;10.18;7.25;;;;;;;9.91;71.66;100810.25;10340319;28;20155;-61
2022/03/15 12:38:40;;;;;;;8.20;7.18;;;;;;;9.78;72.26;100803.22;10337043;28;20056;-62
2022/03/15 12:43:52;;;;;;;8.13;7.25;;;;;;;9.82;71.72;100800.25;10337790;28;20049;-59
2022/03/15 12:48:53;;;;;;;8.57;7.30;;;;;;;9.80;72.49;100774.72;10334893;28;20067;-58
2022/03/15 12:54:04;;;;;;;10.27;8.45;;;;;;;9.68;72.76;100749.81;10346243;28;20048;-61
2022/03/15 12:59:06;;;;;;;11.35;8.07;;;;;;;9.63;73.22;100755.44;10341954;28;20049;-61
2022/03/15 13:04:09;;;;;;;9.00;7.95;;;;;;;9.67;73.49;100780.03;10340087;28;20124;-60
2022/03/15 13:09:11;;;;;;;10.52;8.98;;;;;;;9.64;73.84;100785.56;10341957;28;20093;-59
2022/03/15 13:14:13;;;;;;;10.25;8.15;;;;;;;9.63;73.72;100773.22;10340579;28;20223;-59
2022/03/15 13:19:31;;;;;;;9.70;7.28;;;;;;;9.53;73.70;100783.59;10344680;28;20064;-61
2022/03/15 13:24:37;;;;;;;7.95;6.38;;;;;;;9.50;73.55;100783.81;10341932;28;20678;-62
2022/03/15 13:29:39;;;;;;;9.32;7.35;;;;;;;9.43;74.21;100764.78;10359062;28;20128;-65
2022/03/15 13:34:41;;;;;;;8.07;6.72;;;;;;;9.35;74.37;100743.19;10339443;28;20097;-58
2022/03/15 13:39:42;;;;;;;9.02;7.43;;;;;;;9.37;75.08;100747.44;10342716;28;20049;-59
2022/03/15 13:44:49;;;;;;;9.10;7.05;;;;;;;9.35;75.47;100740.53;10345889;28;20524;-59
2022/03/15 13:49:55;;;;;;;8.57;7.38;;;;;;;9.36;76.13;100708.53;10348363;28;21684;-59
2022/03/15 13:55:01;;;;;;;9.43;7.82;;;;;;;9.40;76.24;100706.53;10342763;28;20468;-58
2022/03/15 14:00:18;;;;;;;10.75;7.15;;;;;;;9.47;76.35;100701.66;10339809;28;20045;-58
2022/03/15 14:05:23;;;;;;;8.57;7.40;;;;;;;9.48;76.24;100706.84;10338276;28;20611;-58
2022/03/15 14:10:25;;;;;;;7.60;6.80;;;;;;;9.42;76.15;100707.28;10341767;28;20054;-59
2022/03/15 14:15:29;;;;;;;8.45;6.60;;;;;;;9.41;76.44;100705.56;10339196;28;20182;-59
2022/03/15 14:20:33;;;;;;;10.20;6.83;;;;;;;9.43;76.52;100698.38;10349033;28;20658;-60
2022/03/15 14:25:35;;;;;;;8.75;7.13;;;;;;;9.37;77.12;100699.63;10344843;28;20556;-60
2022/03/15 14:30:38;;;;;;;8.05;6.88;;;;;;;9.38;76.66;100696.03;10344692;28;22108;-59
2022/03/15 14:35:41;;;;;;;7.78;6.95;;;;;;;9.36;77.12;100689.94;10346672;28;20227;-63
2022/03/15 14:40:45;;;;;;;7.85;7.15;;;;;;;9.43;77.00;100697.50;10343537;28;20045;-60
2022/03/15 14:45:47;;;;;;;8.80;7.10;;;;;;;9.38;77.42;100681.88;10346817;28;20136;-61
2022/03/15 14:50:48;;;;;;;8.45;7.65;;;;;;;9.27;77.71;100674.63;10344585;28;20053;-61
2022/03/15 14:55:50;;;;;;;8.60;7.25;;;;;;;9.27;77.16;100687.91;10339118;28;20112;-59
2022/03/15 15:00:52;;;;;;;8.45;7.07;;;;;;;9.35;77.47;100690.06;10347963;28;20115;-59
2022/03/15 15:06:01;;;;;;;9.90;8.90;;;;;;;9.25;77.75;100665.06;10341719;28;20926;-63
2022/03/15 15:11:03;;;;;;;10.57;8.90;;;;;;;9.33;76.88;100686.66;10336465;28;20205;-61
2022/03/15 15:16:04;;;;;;;14.75;10.35;;;;;;;9.18;77.40;100681.41;10342703;28;20152;-60
2022/03/15 15:21:06;;;;;;;12.02;9.70;;;;;;;9.26;77.79;100691.53;10337211;28;20424;-60
2022/03/15 15:26:09;;;;;;;12.48;11.30;;;;;;;9.37;78.04;100688.16;10341786;28;20184;-62
2022/03/15 15:31:12;;;;;;;11.43;10.40;;;;;;;9.34;78.14;100675.09;10335173;28;20061;-62
2022/03/15 15:36:13;;;;;;;13.18;10.48;;;;;;;9.35;79.00;100674.97;10340506;28;20590;-60
2022/03/15 15:41:15;;;;;;;10.95;9.65;;;;;;;9.29;79.05;100647.97;10344880;28;20064;-61
2022/03/15 15:46:20;;;;;;;11.38;9.55;;;;;;;9.24;79.52;100645.63;10347810;28;20103;-60
2022/03/15 15:51:22;;;;;;;11.18;8.30;;;;;;;9.40;78.90;100644.56;10340023;28;20049;-59
2022/03/15 15:56:25;;;;;;;10.30;7.60;;;;;;;9.41;79.43;100646.28;10339533;28;20053;-60
2022/03/15 16:01:30;;;;;;;8.38;7.57;;;;;;;9.46;79.21;100652.97;10334442;28;20055;-59
2022/03/15 16:06:32;;;;;;;7.85;7.15;;;;;;;9.48;78.93;100643.06;10333786;28;20132;-60
2022/03/15 16:11:34;;;;;;;8.27;7.40;;;;;;;9.57;78.76;100654.03;10334891;28;20773;-58
2022/03/15 16:16:35;;;;;;;7.63;6.90;;;;;;;9.66;78.71;100672.00;10337683;28;20057;-59
2022/03/15 16:21:38;;;;;;;8.88;7.47;;;;;;;9.46;78.08;100660.09;10333574;28;20056;-60
2022/03/15 16:26:39;;;;;;;8.60;7.70;;;;;;;9.58;78.71;100695.59;10334100;28;20049;-60
2022/03/15 16:31:42;;;;;;;9.73;8.73;;;;;;;9.56;79.64;100698.34;10334192;28;20085;-61
2022/03/15 16:36:44;;;;;;;9.25;7.72;;;;;;;9.57;78.98;100701.88;10340574;28;20064;-60
2022/03/15 16:41:46;;;;;;;9.60;8.00;;;;;;;9.56;79.64;100693.03;10332043;28;20122;-60
2022/03/15 16:46:48;;;;;;;9.55;8.60;;;;;;;9.58;79.31;100698.25;10340685;28;20053;-61
2022/03/15 16:51:49;;;;;;;10.10;7.88;;;;;;;9.59;79.50;100691.97;10337579;28;20107;-61
2022/03/15 16:56:51;;;;;;;9.55;8.02;;;;;;;9.45;79.59;100675.19;10335682;28;20049;-60
2022/03/15 17:01:53;;;;;;;9.98;8.98;;;;;;;9.53;79.99;100685.28;10341110;28;20042;-59
2022/03/15 17:06:55;;;;;;;9.88;8.88;;;;;;;9.50;79.90;100704.97;10333350;28;20058;-60
2022/03/15 17:12:00;;;;;;;10.27;8.57;;;;;;;9.44;79.48;100710.66;10339046;28;20050;-60
2022/03/15 17:17:06;;;;;;;11.00;9.73;;;;;;;9.46;79.90;100724.72;10334753;28;20053;-61
2022/03/15 17:22:09;;;;;;;10.23;9.23;;;;;;;9.41;79.66;100732.13;10331520;28;20179;-60
2022/03/15 17:27:12;;;;;;;10.63;9.57;;;;;;;9.16;80.27;100717.03;10333119;28;20120;-61
2022/03/15 17:32:17;;;;;;;10.60;9.52;;;;;;;9.26;81.97;100757.09;10330773;28;20050;-60
2022/03/15 17:37:20;;;;;;;10.57;9.48;;;;;;;9.38;81.01;100753.59;10331814;28;20050;-60
2022/03/15 17:42:23;;;;;;;10.38;9.38;;;;;;;9.37;80.34;100763.38;10338281;28;20169;-61
2022/03/15 17:47:24;;;;;;;11.73;10.55;;;;;;;9.37;80.28;100762.56;10338452;28;20057;-61
2022/03/15 17:52:27;;;;;;;11.55;10.27;;;;;;;9.47;79.97;100770.75;10345277;28;20052;-63
2022/03/15 17:57:31;;;;;;;9.95;8.95;;;;;;;9.48;78.78;100781.25;10346821;28;20723;-61
2022/03/15 18:02:32;;;;;;;11.07;8.63;;;;;;;9.35;79.04;100769.75;10344489;28;20060;-61
2022/03/15 18:07:38;;;;;;;10.18;9.18;;;;;;;9.31;78.96;100789.53;10342507;28;20066;-61
2022/03/15 18:13:01;;;;;;;11.52;10.32;;;;;;;9.27;79.24;100790.69;10344902;28;20076;-60
2022/03/15 18:18:04;;;;;;;10.90;9.57;;;;;;;9.28;79.15;100795.06;10353882;28;20046;-61
2022/03/15 18:23:13;;;;;;;9.57;8.68;;;;;;;9.18;79.53;100794.78;10345409;28;20148;-60
2022/03/15 18:28:16;;;;;;;10.38;9.32;;;;;;;9.10;78.99;100771.41;10340346;28;20048;-60
2022/03/15 18:33:22;;;;;;;10.38;9.32;;;;;;;9.28;78.90;100800.38;10338799;28;20053;-61
2022/03/15 18:38:25;;;;;;;64.72;57.70;;;;;;;9.17;78.81;100793.09;10342228;28;21550;-61
2022/03/15 18:43:27;;;;;;;26.20;19.95;;;;;;;8.85;80.50;100807.50;10341887;28;20133;-61
2022/03/15 18:48:31;;;;;;;9.82;8.93;;;;;;;8.87;79.81;100807.41;10341468;28;20353;-59
2022/03/15 18:53:35;;;;;;;9.98;8.77;;;;;;;9.02;79.06;100808.22;10341859;28;20208;-62
2022/03/15 18:58:36;;;;;;;9.32;8.23;;;;;;;9.13;78.50;100813.69;10336378;28;20529;-61
2022/03/15 19:03:40;;;;;;;8.52;7.63;;;;;;;9.20;77.96;100822.97;10347394;28;20054;-62
2022/03/15 19:08:43;;;;;;;7.80;7.00;;;;;;;9.08;77.72;100810.47;10336457;28;20057;-59
2022/03/15 19:13:45;;;;;;;10.48;9.10;;;;;;;9.10;77.84;100829.84;10342204;28;20123;-59
2022/03/15 19:18:50;;;;;;;8.38;7.38;;;;;;;9.25;77.50;100843.03;10339451;28;20059;-61
2022/03/15 19:23:53;;;;;;;8.65;7.78;;;;;;;9.04;78.48;100859.44;10338963;28;20053;-60
2022/03/15 19:28:56;;;;;;;8.45;7.75;;;;;;;8.88;78.29;100837.47;10334737;28;20169;-60
2022/03/15 19:33:59;;;;;;;8.75;7.88;;;;;;;8.96;79.22;100859.06;10339693;28;20061;-59
2022/03/15 19:39:00;;;;;;;10.25;9.25;;;;;;;9.06;78.05;100854.88;10342528;28;20528;-60
2022/03/15 19:44:02;;;;;;;8.98;8.13;;;;;;;9.07;77.68;100845.97;10339875;28;20184;-59
2022/03/15 19:49:06;;;;;;;9.10;8.23;;;;;;;9.19;77.27;100861.09;10342277;28;20121;-59
2022/03/15 19:54:08;;;;;;;9.27;8.23;;;;;;;9.16;77.64;100850.69;10337537;28;20050;-61
2022/03/15 19:59:13;;;;;;;8.77;7.97;;;;;;;9.12;76.89;100854.47;10341857;28;20290;-61
2022/03/15 20:04:19;;;;;;;9.50;8.65;;;;;;;9.09;76.41;100852.03;10335562;28;20132;-61
2022/03/15 20:09:21;;;;;;;9.40;8.60;;;;;;;9.15;75.91;100856.94;10337782;28;20534;-60
2022/03/15 20:14:23;;;;;;;10.15;8.98;;;;;;;9.11;76.65;100860.75;10338806;28;20075;-61
2022/03/15 20:19:25;;;;;;;9.20;8.40;;;;;;;9.14;76.36;100879.16;10337906;28;20060;-60
2022/03/15 20:24:29;;;;;;;9.25;8.27;;;;;;;8.88;77.07;100893.25;10340602;28;20048;-59
2022/03/15 20:29:35;;;;;;;10.88;9.82;;;;;;;9.01;76.31;100872.94;10339907;28;20515;-59
2022/03/15 20:34:36;;;;;;;9.68;8.75;;;;;;;8.88;76.74;100888.78;10341247;28;20572;-60
2022/03/15 20:39:38;;;;;;;10.63;9.63;;;;;;;8.61;77.60;100884.25;10337369;28;20140;-61
2022/03/15 20:44:39;;;;;;;10.85;9.63;;;;;;;8.76;77.42;100897.50;10335715;28;21259;-61
2022/03/15 20:49:41;;;;;;;11.07;9.98;;;;;;;8.88;77.09;100901.22;10330690;28;21762;-60
2022/03/15 20:54:44;;;;;;;10.35;9.45;;;;;;;8.87;76.30;100897.69;10326085;28;20056;-59
2022/03/15 20:59:49;;;;;;;10.15;7.90;;;;;;;8.76;76.64;100906.31;10343929;28;20050;-59
2022/03/15 21:04:51;;;;;;;11.18;10.13;;;;;;;8.72;76.99;100904.81;10343363;28;20833;-60
2022/03/15 21:09:52;;;;;;;9.57;8.68;;;;;;;8.73;76.61;100905.66;10335904;28;20049;-60
2022/03/15 21:14:54;;;;;;;9.15;8.25;;;;;;;8.74;75.98;100923.31;10348826;28;20525;-63
2022/03/15 21:19:58;;;;;;;9.27;8.43;;;;;;;8.69;76.43;100910.28;10362883;28;20049;-61
2022/03/15 21:25:01;;;;;;;9.30;8.40;;;;;;;8.64;76.25;100912.41;10355436;28;20060;-60
2022/03/15 21:30:03;;;;;;;10.45;9.45;;;;;;;8.65;76.17;100924.72;10357660;28;20062;-61
2022/03/15 21:35:05;;;;;;;10.07;9.10;;;;;;;8.31;76.58;100900.22;10356786;28;20125;-60
2022/03/15 21:40:09;;;;;;;10.00;9.00;;;;;;;8.50;76.30;100942.44;10351770;28;20046;-61
2022/03/15 21:45:13;;;;;;;9.07;8.17;;;;;;;8.48;76.61;100942.53;10349968;28;20432;-60
2022/03/15 21:50:15;;;;;;;10.10;8.63;;;;;;;8.52;76.16;100934.38;10356134;28;20148;-61
2022/03/15 21:55:17;;;;;;;9.45;8.55;;;;;;;8.51;75.60;100943.28;10352221;28;20119;-61
2022/03/15 22:00:18;;;;;;;8.93;8.02;;;;;;;8.51;75.65;100948.59;10356568;28;20495;-60
2022/03/15 22:05:20;;;;;;;9.70;8.70;;;;;;;8.35;75.72;100930.94;10355055;28;20069;-60
2022/03/15 22:10:24;;;;;;;8.70;7.90;;;;;;;8.31;75.46;100937.34;10357675;28;20067;-60
2022/03/15 22:15:26;;;;;;;9.98;8.95;;;;;;;8.37;75.57;100950.25;10357254;28;20504;-59
2022/03/15 22:20:28;;;;;;;10.05;9.05;;;;;;;8.37;75.85;100947.59;10355468;28;20076;-65
2022/03/15 22:25:31;;;;;;;9.35;8.45;;;;;;;8.29;76.17;100949.88;10354961;28;20056;-60
2022/03/15 23:18:14;;;;;;;11.55;10.45;;;;;;;7.70;76.58;100945.34;10352527;28;20111;-60
2022/03/15 23:23:17;;;;;;;11.88;10.70;;;;;;;7.96;77.24;100993.34;10355974;28;20049;-60
2022/03/15 23:28:18;;;;;;;12.43;11.20;;;;;;;7.81;77.25;100975.63;10354728;28;20125;-61
2022/03/15 23:33:20;;;;;;;12.82;11.52;;;;;;;7.86;76.96;101000.09;10357092;28;20049;-60
2022/03/15 23:38:21;;;;;;;12.07;10.82;;;;;;;7.86;76.96;100994.81;10350663;28;20052;-61
2022/03/15 23:43:23;;;;;;;13.02;11.55;;;;;;;7.80;76.85;101001.31;10351768;28;20064;-61
2022/03/15 23:48:24;;;;;;;11.90;10.70;;;;;;;7.69;77.26;100983.38;10353795;28;20121;-61
2022/03/15 23:53:26;;;;;;;13.57;12.18;;;;;;;7.66;77.41;100995.94;10360514;28;20065;-60
2022/03/15 23:58:27;;;;;;;12.65;11.15;;;;;;;7.68;77.29;101005.50;10355580;28;20041;-61
